createdAt,value
2022-09-07T00:01:11.615Z,16.82
2022-09-07T00:03:39.413Z,16.76
2022-09-07T00:06:13.003Z,16.73
2022-09-07T00:08:43.853Z,16.74
2022-09-07T00:11:16.834Z,16.76
2022-09-07T00:13:47.946Z,16.73
2022-09-07T00:16:30.128Z,16.69
2022-09-07T00:19:01.955Z,16.68
2022-09-07T00:21:30.211Z,16.64
2022-09-07T00:23:58.185Z,16.58
2022-09-07T00:26:29.827Z,16.53
2022-09-07T00:29:01.030Z,16.49
2022-09-07T00:31:31.191Z,16.46
2022-09-07T00:34:01.360Z,16.45
2022-09-07T00:36:29.405Z,16.52
2022-09-07T00:38:58.528Z,16.50
2022-09-07T00:41:26.607Z,16.43
2022-09-07T00:44:19.957Z,16.39
2022-09-07T00:46:47.714Z,16.37
2022-09-07T00:49:21.948Z,16.38
2022-09-07T00:52:02.922Z,16.35
2022-09-07T00:54:49.496Z,16.29
2022-09-07T00:57:17.469Z,16.25
2022-09-07T00:59:50.505Z,16.23
2022-09-07T01:02:20.340Z,16.16
2022-09-07T01:04:53.408Z,16.11
2022-09-07T01:07:21.219Z,16.12
2022-09-07T01:09:50.878Z,16.15
2022-09-07T01:12:18.647Z,16.15
2022-09-07T01:14:51.826Z,16.13
2022-09-07T01:17:40.754Z,16.07
2022-09-07T01:20:26.913Z,15.97
2022-09-07T01:23:21.542Z,15.91
2022-09-07T01:26:13.368Z,15.91
2022-09-07T01:28:42.303Z,15.91
2022-09-07T01:31:30.119Z,15.91
2022-09-07T01:34:25.345Z,15.93
2022-09-07T01:37:36.888Z,15.90
2022-09-07T01:40:23.999Z,15.87
2022-09-07T01:43:04.585Z,15.83
2022-09-07T01:45:37.531Z,15.81
2022-09-07T01:48:10.554Z,15.85
2022-09-07T01:50:51.506Z,15.88
2022-09-07T01:53:37.266Z,15.86
2022-09-07T01:56:15.190Z,15.82
2022-09-07T01:58:53.745Z,15.83
2022-09-07T02:01:38.794Z,15.82
2022-09-07T02:04:21.607Z,15.80
2022-09-07T02:07:06.730Z,15.78
2022-09-07T02:13:08.982Z,15.74
2022-09-07T02:15:51.906Z,15.71
2022-09-07T02:18:23.039Z,15.71
2022-09-07T02:20:58.056Z,15.68
2022-09-07T02:23:36.486Z,15.67
2022-09-07T02:26:13.341Z,15.60
2022-09-07T02:28:41.635Z,15.55
2022-09-07T02:31:09.782Z,15.54
2022-09-07T02:33:37.862Z,15.52
2022-09-07T02:36:07.155Z,15.50
2022-09-07T02:38:36.024Z,15.50
2022-09-07T02:41:05.463Z,15.49
2022-09-07T02:43:33.804Z,15.48
2022-09-07T02:46:13.226Z,15.44
2022-09-07T02:49:16.379Z,15.42
2022-09-07T02:52:20.730Z,15.44
2022-09-07T02:55:09.501Z,15.44
2022-09-07T02:58:14.024Z,15.42
2022-09-07T03:01:04.296Z,15.40
2022-09-07T03:04:13.510Z,15.40
2022-09-07T03:06:59.453Z,15.38
2022-09-07T03:09:32.749Z,15.37
2022-09-07T03:12:05.409Z,15.39
2022-09-07T03:14:34.447Z,15.39
2022-09-07T03:17:03.026Z,15.40
2022-09-07T03:19:30.858Z,15.37
2022-09-07T03:21:58.821Z,15.35
2022-09-07T03:24:26.580Z,15.32
2022-09-07T03:26:54.362Z,15.32
2022-09-07T03:29:22.285Z,15.31
2022-09-07T03:31:50.240Z,15.27
2022-09-07T03:34:18.080Z,15.29
2022-09-07T03:36:45.875Z,15.29
2022-09-07T03:39:14.024Z,15.27
2022-09-07T03:41:41.842Z,15.24
2022-09-07T03:44:09.721Z,15.20
2022-09-07T03:46:37.545Z,15.23
2022-09-07T03:49:05.343Z,15.19
2022-09-07T03:51:33.032Z,15.19
2022-09-07T03:54:00.809Z,15.20
2022-09-07T03:56:28.650Z,15.20
2022-09-07T03:58:56.460Z,15.21
2022-09-07T04:01:27.249Z,15.19
2022-09-07T04:04:02.151Z,15.17
2022-09-07T04:06:31.906Z,15.13
2022-09-07T04:09:10.598Z,15.13
2022-09-07T04:11:40.414Z,15.11
2022-09-07T04:14:09.935Z,15.10
2022-09-07T04:16:38.355Z,15.10
2022-09-07T04:19:06.248Z,15.09
2022-09-07T04:21:34.589Z,15.07
2022-09-07T04:24:02.767Z,15.05
2022-09-07T04:26:34.094Z,15.05
2022-09-07T04:29:02.931Z,15.03
2022-09-07T04:31:31.047Z,15.02
2022-09-07T04:33:58.816Z,15.01
2022-09-07T04:36:26.769Z,15.00
2022-09-07T04:39:04.428Z,15.02
2022-09-07T04:41:34.979Z,15.00
2022-09-07T04:44:04.893Z,15.01
2022-09-07T04:46:36.154Z,15.00
2022-09-07T04:49:09.468Z,15.01
2022-09-07T04:51:39.380Z,14.96
2022-09-07T04:54:07.444Z,14.94
2022-09-07T04:56:35.328Z,14.98
2022-09-07T04:59:04.689Z,14.98
2022-09-07T05:01:32.688Z,15.02
2022-09-07T05:04:02.342Z,15.02
2022-09-07T05:06:30.409Z,15.04
2022-09-07T05:09:00.042Z,15.06
2022-09-07T05:11:29.927Z,15.08
2022-09-07T05:14:03.751Z,15.05
2022-09-07T05:16:32.216Z,15.11
2022-09-07T05:19:03.882Z,15.14
2022-09-07T05:21:34.875Z,15.16
2022-09-07T05:24:04.365Z,15.18
2022-09-07T05:26:36.576Z,15.23
2022-09-07T05:31:54.825Z,15.35
2022-09-07T05:34:31.103Z,15.43
2022-09-07T05:37:00.181Z,15.49
2022-09-07T05:39:29.043Z,15.56
2022-09-07T05:41:56.862Z,15.65
2022-09-07T05:47:13.407Z,15.85
2022-09-07T05:49:41.170Z,15.96
2022-09-07T05:52:09.136Z,16.10
2022-09-07T05:54:36.913Z,16.21
2022-09-07T05:57:04.959Z,16.33
2022-09-07T05:59:33.420Z,16.43
2022-09-07T06:02:01.445Z,16.52
2022-09-07T06:04:29.420Z,16.62
2022-09-07T06:12:33.981Z,16.98
2022-09-07T06:15:01.788Z,17.09
2022-09-07T06:17:31.082Z,17.25
2022-09-07T06:19:58.900Z,17.39
2022-09-07T06:22:30.219Z,17.52
2022-09-07T06:24:59.240Z,17.65
2022-09-07T06:27:27.183Z,17.77
2022-09-07T06:29:55.563Z,17.91
2022-09-07T06:35:12.491Z,18.18
2022-09-07T06:37:41.482Z,18.34
2022-09-07T06:40:11.112Z,18.50
2022-09-07T06:42:39.262Z,18.67
2022-09-07T06:45:07.679Z,18.87
2022-09-07T06:47:35.551Z,19.07
2022-09-07T06:50:03.602Z,19.30
2022-09-07T06:55:19.217Z,19.68
2022-09-07T06:57:46.990Z,19.82
2022-09-07T07:00:15.278Z,19.89
2022-09-07T07:02:43.010Z,20.00
2022-09-07T07:05:10.779Z,20.10
2022-09-07T07:07:38.580Z,20.23
2022-09-07T07:10:06.884Z,20.34
2022-09-07T07:15:04.307Z,20.57
2022-09-07T07:17:32.079Z,20.70
2022-09-07T07:19:59.848Z,20.75
2022-09-07T07:22:46.173Z,20.90
2022-09-07T07:25:15.199Z,21.05
2022-09-07T07:27:43.171Z,21.22
2022-09-07T07:30:11.330Z,21.34
2022-09-07T07:32:39.875Z,21.48
2022-09-07T07:35:08.897Z,21.64
2022-09-07T07:37:37.456Z,21.72
2022-09-07T07:40:17.839Z,21.96
2022-09-07T07:42:48.210Z,22.10
2022-09-07T07:48:04.427Z,22.39
2022-09-07T07:50:34.579Z,22.55
2022-09-07T07:55:51.348Z,22.82
2022-09-07T07:58:19.645Z,23.00
2022-09-07T08:00:54.595Z,23.15
2022-09-07T08:03:24.774Z,23.27
2022-09-07T08:05:52.890Z,23.35
2022-09-07T08:08:23.683Z,23.45
2022-09-07T08:10:51.450Z,23.58
2022-09-07T08:13:19.343Z,23.74
2022-09-07T08:15:47.397Z,23.84
2022-09-07T08:18:17.554Z,23.93
2022-09-07T08:20:45.302Z,24.04
2022-09-07T08:23:14.793Z,24.20
2022-09-07T08:25:54.305Z,24.32
2022-09-07T08:28:23.651Z,24.55
2022-09-07T08:30:52.149Z,24.80
2022-09-07T08:33:20.268Z,25.02
2022-09-07T08:36:03.498Z,25.17
2022-09-07T08:38:34.197Z,25.33
2022-09-07T08:41:18.609Z,25.48
2022-09-07T08:43:57.209Z,25.72
2022-09-07T08:46:49.062Z,25.87
2022-09-07T08:49:27.188Z,26.08
2022-09-07T08:52:12.994Z,26.27
2022-09-07T08:54:45.918Z,26.45
2022-09-07T08:57:25.138Z,26.59
2022-09-07T09:00:07.866Z,26.78
2022-09-07T09:02:43.197Z,26.85
2022-09-07T09:05:23.712Z,27.03
2022-09-07T09:08:18.367Z,27.24
2022-09-07T09:10:55.443Z,27.36
2022-09-07T09:13:56.020Z,27.50
2022-09-07T09:16:55.080Z,27.56
2022-09-07T09:19:34.521Z,27.66
2022-09-07T09:22:20.725Z,27.86
2022-09-07T09:25:26.787Z,27.99
2022-09-07T09:27:54.521Z,27.98
2022-09-07T09:30:24.582Z,28.09
2022-09-07T09:33:13.535Z,28.19
2022-09-07T09:35:42.554Z,28.26
2022-09-07T09:38:43.544Z,28.26
2022-09-07T09:41:16.267Z,28.33
2022-09-07T09:43:56.809Z,28.44
2022-09-07T09:46:34.426Z,28.57
2022-09-07T09:49:28.360Z,28.66
2022-09-07T09:54:53.860Z,28.86
2022-09-07T10:01:23.107Z,29.04
2022-09-07T10:06:23.083Z,29.14
2022-09-07T10:09:02.518Z,29.15
2022-09-07T10:14:47.632Z,29.33
2022-09-07T10:17:35.681Z,29.37
2022-09-07T10:20:20.085Z,29.38
2022-09-07T10:22:53.287Z,29.45
2022-09-07T10:25:40.168Z,29.40
2022-09-07T10:28:14.244Z,29.40
2022-09-07T10:31:03.217Z,29.47
2022-09-07T10:36:57.981Z,29.46
2022-09-07T10:39:41.638Z,29.48
2022-09-07T10:42:09.393Z,29.59
2022-09-07T10:45:13.565Z,29.55
2022-09-07T10:48:06.126Z,29.53
2022-09-07T10:50:56.928Z,29.58
2022-09-07T10:57:32.350Z,29.61
2022-09-07T11:00:18.197Z,29.52
2022-09-07T11:03:25.329Z,29.58
2022-09-07T11:06:15.289Z,29.60
2022-09-07T11:12:04.279Z,29.71
2022-09-07T11:15:04.533Z,29.75
2022-09-07T11:17:50.722Z,29.80
2022-09-07T11:20:29.186Z,29.80
2022-09-07T11:23:11.319Z,29.85
2022-09-07T11:26:22.090Z,29.74
2022-09-07T11:32:21.688Z,29.72
2022-09-07T11:34:54.340Z,29.74
2022-09-07T11:37:46.868Z,29.73
2022-09-07T11:40:56.138Z,29.71
2022-09-07T11:43:46.031Z,29.70
2022-09-07T11:46:32.882Z,29.63
2022-09-07T11:49:04.473Z,29.59
2022-09-07T11:51:46.557Z,29.67
2022-09-07T11:54:32.702Z,29.59
2022-09-07T11:57:26.063Z,29.49
2022-09-07T12:00:02.396Z,29.49
2022-09-07T12:03:00.195Z,29.47
2022-09-07T12:06:11.583Z,29.47
2022-09-07T12:09:14.047Z,29.51
2022-09-07T12:12:19.825Z,29.59
2022-09-07T12:15:57.365Z,29.45
2022-09-07T12:18:31.657Z,29.48
2022-09-07T12:20:59.437Z,29.52
2022-09-07T12:23:31.716Z,29.54
2022-09-07T12:26:33.573Z,29.61
2022-09-07T12:29:01.110Z,29.61
2022-09-07T12:32:07.420Z,29.66
2022-09-07T12:34:53.460Z,29.75
2022-09-07T12:37:27.229Z,29.78
2022-09-07T12:40:34.632Z,29.79
2022-09-07T12:43:14.225Z,29.87
2022-09-07T12:45:42.299Z,29.91
2022-09-07T12:48:16.008Z,29.95
2022-09-07T12:54:23.525Z,29.95
2022-09-07T12:57:32.383Z,29.96
2022-09-07T13:00:25.655Z,29.96
2022-09-07T13:02:56.855Z,29.99
2022-09-07T13:05:56.376Z,29.95
2022-09-07T13:08:39.969Z,30.03
2022-09-07T13:11:25.745Z,30.05
2022-09-07T13:14:03.904Z,30.09
2022-09-07T13:19:53.453Z,30.14
2022-09-07T13:22:33.383Z,30.10
2022-09-07T13:25:23.749Z,30.14
2022-09-07T13:27:57.400Z,30.24
2022-09-07T13:31:07.244Z,30.26
2022-09-07T13:33:34.984Z,30.32
2022-09-07T13:36:05.335Z,30.29
2022-09-07T13:38:36.876Z,30.34
2022-09-07T13:41:32.728Z,30.27
2022-09-07T13:44:03.852Z,30.32
2022-09-07T13:47:11.632Z,30.29
2022-09-07T13:50:05.918Z,30.29
2022-09-07T13:53:13.926Z,30.27
2022-09-07T13:55:48.088Z,30.27
2022-09-07T13:58:38.010Z,30.26
2022-09-07T14:01:19.039Z,30.26
2022-09-07T14:03:53.790Z,30.27
2022-09-07T14:06:21.447Z,30.27
2022-09-07T14:08:54.131Z,30.33
2022-09-07T14:11:42.535Z,30.28
2022-09-07T14:14:17.725Z,30.37
2022-09-07T14:17:11.532Z,30.38
2022-09-07T14:19:50.782Z,30.41
2022-09-07T14:22:21.981Z,30.39
2022-09-07T14:24:54.368Z,30.41
2022-09-07T14:27:41.238Z,30.43
2022-09-07T14:30:32.092Z,30.36
2022-09-07T14:33:13.456Z,30.39
2022-09-07T14:35:42.085Z,30.35
2022-09-07T14:41:20.576Z,30.22
2022-09-07T14:43:58.351Z,30.23
2022-09-07T14:46:36.879Z,30.26
2022-09-07T14:49:21.619Z,30.28
2022-09-07T14:51:50.478Z,30.30
2022-09-07T14:54:27.405Z,30.29
2022-09-07T14:57:10.194Z,30.26
2022-09-07T14:59:46.921Z,30.25
2022-09-07T15:02:25.433Z,30.26
2022-09-07T15:05:14.977Z,30.24
2022-09-07T15:07:48.491Z,30.24
2022-09-07T15:10:41.270Z,30.26
2022-09-07T15:13:34.282Z,30.28
2022-09-07T15:16:06.216Z,30.30
2022-09-07T15:19:43.076Z,30.21
2022-09-07T15:22:13.397Z,30.15
2022-09-07T15:24:41.165Z,30.02
2022-09-07T15:27:28.879Z,29.91
2022-09-07T15:29:56.589Z,29.87
2022-09-07T15:32:24.497Z,29.77
2022-09-07T15:34:52.167Z,29.64
2022-09-07T15:40:22.530Z,29.28
2022-09-07T15:43:19.609Z,29.13
2022-09-07T15:45:39.688Z,28.96
2022-09-07T15:48:07.657Z,28.81
2022-09-07T15:50:35.301Z,28.67
2022-09-07T15:53:03.344Z,28.48
2022-09-07T15:55:31.084Z,28.26
2022-09-07T15:58:11.043Z,28.05
2022-09-07T16:00:40.099Z,27.82
2022-09-07T16:03:08.559Z,27.65
2022-09-07T16:05:44.133Z,27.53
2022-09-07T16:08:32.717Z,27.37
2022-09-07T16:11:18.707Z,27.24
2022-09-07T16:13:48.128Z,27.11
2022-09-07T16:16:16.432Z,27.00
2022-09-07T16:18:46.690Z,26.91
2022-09-07T16:21:15.778Z,26.78
2022-09-07T16:23:48.928Z,26.68
2022-09-07T16:26:20.823Z,26.57
2022-09-07T16:28:52.626Z,26.48
2022-09-07T16:31:27.477Z,26.38
2022-09-07T16:33:55.287Z,26.31
2022-09-07T16:36:23.721Z,26.26
2022-09-07T16:39:00.455Z,26.19
2022-09-07T16:41:31.845Z,26.11
2022-09-07T16:43:59.664Z,26.00
2022-09-07T16:46:34.913Z,25.99
2022-09-07T16:49:04.148Z,25.92
2022-09-07T16:51:32.048Z,25.84
2022-09-07T16:54:00.685Z,25.69
2022-09-07T16:56:34.570Z,25.50
2022-09-07T16:59:07.126Z,25.33
2022-09-07T17:01:40.395Z,25.21
2022-09-07T17:04:11.311Z,25.14
2022-09-07T17:06:40.515Z,25.08
2022-09-07T17:09:08.393Z,25.05
2022-09-07T17:11:37.371Z,25.02
2022-09-07T17:14:06.731Z,24.94
2022-09-07T17:16:39.109Z,24.83
2022-09-07T17:22:00.013Z,24.69
2022-09-07T17:24:27.950Z,24.60
2022-09-07T18:01:50.902Z,22.30
2022-09-07T18:04:18.820Z,22.42
2022-09-07T18:06:46.562Z,22.54
2022-09-07T18:09:14.514Z,22.63
2022-09-07T18:11:45.757Z,22.68
2022-09-07T18:14:15.296Z,22.67
2022-09-07T18:16:46.142Z,22.65
2022-09-07T18:19:14.316Z,22.71
2022-09-07T18:21:44.006Z,22.73
2022-09-07T18:24:22.987Z,22.80
2022-09-07T18:26:53.863Z,22.75
2022-09-07T18:29:32.481Z,22.67
2022-09-07T18:32:05.694Z,22.63
2022-09-07T18:34:37.698Z,22.58
2022-09-07T18:37:06.742Z,22.57
2022-09-07T18:39:35.826Z,22.54
2022-09-07T18:42:04.158Z,22.49
2022-09-07T18:47:27.841Z,22.45
2022-09-07T18:49:57.343Z,22.45
2022-09-07T18:55:14.151Z,22.32
2022-09-07T18:57:42.913Z,22.21
2022-09-07T19:00:12.977Z,22.18
2022-09-07T19:02:41.007Z,22.13
2022-09-07T19:07:57.000Z,22.01
2022-09-07T19:10:24.785Z,21.98
2022-09-07T19:12:52.754Z,21.98
2022-09-07T19:15:20.886Z,21.99
2022-09-07T19:17:48.720Z,21.98
2022-09-07T19:20:17.572Z,22.01
2022-09-07T19:22:45.239Z,22.01
2022-09-07T19:25:12.937Z,21.95
2022-09-07T19:27:40.662Z,21.87
2022-09-07T19:30:09.346Z,21.79
2022-09-07T19:32:38.257Z,21.73
2022-09-07T19:35:06.108Z,21.67
2022-09-07T19:37:33.781Z,21.64
2022-09-07T19:40:02.074Z,21.64
2022-09-07T19:42:30.047Z,21.59
2022-09-07T19:44:57.701Z,21.59
2022-09-07T19:47:25.341Z,21.54
2022-09-07T19:49:53.017Z,21.49
2022-09-07T19:52:20.703Z,21.45
2022-09-07T19:54:48.423Z,21.40
2022-09-07T19:57:16.077Z,21.40
2022-09-07T19:59:45.712Z,21.35
2022-09-07T20:02:13.485Z,21.30
2022-09-07T20:04:41.224Z,21.24
2022-09-07T20:07:09.008Z,21.20
2022-09-07T20:09:36.887Z,21.18
2022-09-07T20:12:06.783Z,21.19
2022-09-07T20:14:34.603Z,21.12
2022-09-07T20:17:02.457Z,21.10
2022-09-07T20:19:30.164Z,21.06
2022-09-07T20:21:57.975Z,21.01
2022-09-07T20:24:25.808Z,20.98
2022-09-07T20:26:53.616Z,20.95
2022-09-07T20:29:27.903Z,20.93
2022-09-07T20:31:59.355Z,20.93
2022-09-07T20:34:28.995Z,20.88
2022-09-07T20:36:57.031Z,20.84
2022-09-07T20:39:25.043Z,20.80
2022-09-07T20:41:53.092Z,20.77
2022-09-07T20:44:20.763Z,20.71
2022-09-07T20:46:48.597Z,20.64
2022-09-07T20:49:16.428Z,20.61
2022-09-07T20:51:44.150Z,20.57
2022-09-07T20:54:11.910Z,20.56
2022-09-07T20:56:39.630Z,20.51
2022-09-07T20:59:07.313Z,20.51
2022-09-07T21:01:35.373Z,20.45
2022-09-07T21:04:04.153Z,20.45
2022-09-07T21:06:33.241Z,20.42
2022-09-07T21:09:01.528Z,20.37
2022-09-07T21:11:33.596Z,20.34
2022-09-07T21:14:12.506Z,20.31
2022-09-07T21:16:40.873Z,20.30
2022-09-07T21:19:13.144Z,20.24
2022-09-07T21:21:42.893Z,20.17
2022-09-07T21:24:28.432Z,20.17
2022-09-07T21:26:56.057Z,20.11
2022-09-07T21:29:25.752Z,20.10
2022-09-07T21:31:54.622Z,20.09
2022-09-07T21:34:23.297Z,20.03
2022-09-07T21:36:52.028Z,19.98
2022-09-07T21:39:20.867Z,19.95
2022-09-07T21:41:48.539Z,19.92
2022-09-07T21:44:16.774Z,19.94
2022-09-07T21:46:45.040Z,19.92
2022-09-07T21:49:12.742Z,19.90
2022-09-07T21:51:40.461Z,19.88
2022-09-07T21:54:08.276Z,19.88
2022-09-07T21:56:36.723Z,19.86
2022-09-07T21:59:05.216Z,19.81
2022-09-07T22:01:33.620Z,19.73
2022-09-07T22:04:04.934Z,19.70
2022-09-07T22:06:34.260Z,19.67
2022-09-07T22:09:04.065Z,19.65
2022-09-07T22:11:32.711Z,19.63
2022-09-07T22:14:04.259Z,19.61
2022-09-07T22:16:35.276Z,19.60
2022-09-07T22:19:03.499Z,19.57
2022-09-07T22:21:31.598Z,19.54
2022-09-07T22:24:03.937Z,19.50
2022-09-07T22:26:39.545Z,19.52
2022-09-07T22:29:12.105Z,19.52
2022-09-07T22:31:40.267Z,19.52
2022-09-07T22:34:09.506Z,19.52
2022-09-07T22:36:43.299Z,19.51
2022-09-07T22:39:18.505Z,19.50
2022-09-07T22:41:47.696Z,19.51
2022-09-07T22:44:18.629Z,19.49
2022-09-07T22:46:47.749Z,19.45
2022-09-07T22:49:17.145Z,19.43
2022-09-07T22:51:45.650Z,19.39
2022-09-07T22:54:13.690Z,19.36
2022-09-07T22:56:41.698Z,19.33
2022-09-07T22:59:10.460Z,19.30
2022-09-07T23:01:38.819Z,19.27
2022-09-07T23:04:07.942Z,19.22
2022-09-07T23:06:38.741Z,19.22
2022-09-07T23:09:18.221Z,19.18
2022-09-07T23:11:47.849Z,19.17
2022-09-07T23:14:22.202Z,19.11
2022-09-07T23:26:38.274Z,18.88
2022-09-07T23:29:06.660Z,18.87
2022-09-07T23:31:35.455Z,18.85
2022-09-07T23:34:04.138Z,18.82
2022-09-07T23:36:32.319Z,18.79
2022-09-07T23:39:01.237Z,18.75
2022-09-07T23:41:29.071Z,18.75
2022-09-07T23:43:57.740Z,18.76
2022-09-07T23:46:25.771Z,18.74
2022-09-07T23:48:53.559Z,18.73
2022-09-07T23:51:24.312Z,18.75
2022-09-07T23:53:53.526Z,18.74
2022-09-07T23:56:24.466Z,18.75
2022-09-07T23:58:52.362Z,18.64
